ADDS TAF Data INFO
IDs: Format: Raw Decoded Include METARs

Data at: 0537 UTC 21 Apr 2018

KHLG 210453Z AUTO 02003KT 10SM CLR 04/M07 A3043 RMK AO2 SLP314 T00441072 401221017

KHLG 210520Z 2106/2206 VRB03KT P6SM SKC
  FM211900 01005KT P6SM BKN150